Weather at Alpine Casparis Municipal Airport

Public forecast

Using degrees Fahrenheit for public forecast. Weather courtesy of forecast.io.

Current aviation weather report (METAR) for Alpine Casparis Municipal Airport

Retrieved UTC (0 seconds ago):

Closest aviation forecast (TAF) to Alpine Casparis Municipal Airport

Closest forecast is Fort Stockton Pecos County Airport, 50.9 nm (94.3 km) NE. Retrieved 2020/12/04 18:22 UTC (5 hours ago):

TAF KFST 041720Z 0418/0518 30006KT P6SM FEW250 FM050300 23007KT P6SM OVC250 FM051200 24008KT P6SM OVC070